Time;durP1;ratioP1;P1;durP2;ratioP2;P2;SDS_P1;SDS_P2;PMS_P1;PMS_P2;Temp;Humidity;BMP_temperature;BMP_pressure;BME280_temperature;BME280_humidity;BME280_pressure;Samples;Min_cycle;Max_cycle;Signal;HPM_P1;HPM_P2
2022/07/13 00:00:21;;;;;;;7.90;6.23;;;19.40;99.90;;;;;;4999548;28;20769;-60
2022/07/13 00:02:53;;;;;;;8.03;6.50;;;19.40;99.90;;;;;;4999650;28;20551;-61
2022/07/13 00:05:21;;;;;;;6.53;5.87;;;19.40;99.90;;;;;;4999748;28;20828;-61
2022/07/13 00:07:51;;;;;;;6.30;5.90;;;19.40;99.90;;;;;;4999568;28;20469;-61
2022/07/13 00:10:18;;;;;;;7.20;5.87;;;19.40;99.90;;;;;;4999612;28;20571;-61
2022/07/13 00:12:49;;;;;;;6.40;5.90;;;19.40;99.90;;;;;;4999683;28;20496;-61
2022/07/13 00:15:17;;;;;;;7.60;6.40;;;19.30;99.90;;;;;;5000010;28;20524;-61
2022/07/13 00:17:44;;;;;;;6.60;6.00;;;19.20;99.90;;;;;;4999361;28;20475;-61
2022/07/13 00:20:13;;;;;;;6.80;6.10;;;19.20;99.90;;;;;;4999686;28;20460;-61
2022/07/13 00:22:41;;;;;;;6.30;5.70;;;19.30;99.90;;;;;;4999597;28;20567;-61
2022/07/13 00:25:10;;;;;;;6.27;5.77;;;19.20;99.90;;;;;;4999440;28;20472;-60
2022/07/13 00:27:39;;;;;;;6.47;5.87;;;19.10;99.90;;;;;;4999371;28;20471;-61
2022/07/13 00:30:08;;;;;;;6.20;5.70;;;19.20;99.90;;;;;;4999216;28;20920;-59
2022/07/13 00:32:38;;;;;;;6.80;6.13;;;19.30;99.90;;;;;;4999466;28;20471;-61
2022/07/13 00:35:06;;;;;;;7.63;6.90;;;19.20;99.90;;;;;;4999025;28;20782;-61
2022/07/13 00:37:34;;;;;;;6.80;6.00;;;19.20;99.90;;;;;;4997923;28;20496;-60
2022/07/13 00:40:02;;;;;;;7.37;6.67;;;19.20;99.90;;;;;;4998060;28;20491;-61
2022/07/13 00:42:37;;;;;;;7.20;6.60;;;19.20;99.90;;;;;;4997812;28;20546;-61
2022/07/13 00:45:08;;;;;;;6.93;5.47;;;19.40;99.90;;;;;;4998206;28;20567;-61
2022/07/13 00:47:35;;;;;;;6.87;6.13;;;19.40;99.90;;;;;;4997957;28;20560;-61
2022/07/13 00:50:06;;;;;;;7.37;6.20;;;19.50;99.90;;;;;;4997613;28;20439;-61
2022/07/13 00:52:35;;;;;;;7.00;6.30;;;19.50;99.90;;;;;;4997477;28;20468;-61
2022/07/13 00:55:04;;;;;;;7.50;6.90;;;19.50;99.90;;;;;;4998020;28;20496;-61
2022/07/13 00:57:36;;;;;;;8.23;6.20;;;19.60;99.90;;;;;;4997540;28;20472;-61
2022/07/13 01:00:06;;;;;;;6.90;6.30;;;19.50;99.90;;;;;;4997856;28;20612;-61
2022/07/13 01:02:33;;;;;;;7.70;6.93;;;19.50;99.90;;;;;;4998131;28;20476;-61
2022/07/13 01:05:02;;;;;;;7.60;6.90;;;19.50;99.90;;;;;;4997906;28;20489;-59
2022/07/13 01:07:32;;;;;;;8.10;7.40;;;19.50;99.90;;;;;;4997646;28;20511;-61
2022/07/13 01:10:01;;;;;;;8.13;7.37;;;19.50;99.90;;;;;;4997226;28;20465;-61
2022/07/13 01:12:33;;;;;;;8.80;6.60;;;19.50;99.90;;;;;;4997968;28;20465;-61
2022/07/13 01:15:01;;;;;;;7.00;6.30;;;19.50;99.90;;;;;;4997182;28;20943;-61
2022/07/13 01:17:28;;;;;;;8.33;7.43;;;19.40;99.90;;;;;;4997471;28;20898;-58
2022/07/13 01:19:57;;;;;;;8.50;7.70;;;19.40;99.90;;;;;;4997439;28;20468;-61
2022/07/13 01:22:30;;;;;;;7.23;6.53;;;19.40;1.00;;;;;;4997483;28;20500;-60
2022/07/13 01:24:59;;;;;;;7.33;6.73;;;19.30;1.00;;;;;;4997729;28;20528;-61
2022/07/13 01:27:29;;;;;;;7.40;6.80;;;19.30;1.00;;;;;;4997298;28;20503;-61
2022/07/13 01:30:00;;;;;;;11.47;7.50;;;19.20;1.00;;;;;;4997445;28;20556;-61
2022/07/13 01:32:27;;;;;;;8.43;7.53;;;19.20;1.00;;;;;;4997559;28;20461;-61
2022/07/13 01:34:54;;;;;;;7.23;6.53;;;19.20;1.00;;;;;;4997391;28;20765;-61
2022/07/13 01:37:22;;;;;;;7.27;6.50;;;19.20;1.00;;;;;;4956413;28;1188902;-60
2022/07/13 01:39:49;;;;;;;9.33;7.23;;;19.30;1.00;;;;;;4997785;28;20348;-61
2022/07/13 01:42:18;;;;;;;7.70;7.10;;;19.30;1.00;;;;;;4997950;28;20563;-61
2022/07/13 01:44:49;;;;;;;7.13;6.43;;;19.40;1.00;;;;;;4997971;28;20460;-61
2022/07/13 01:47:20;;;;;;;8.00;7.20;;;19.30;1.00;;;;;;4998110;28;20563;-61
2022/07/13 01:49:47;;;;;;;6.70;6.10;;;19.30;1.00;;;;;;4997728;28;20887;-61
2022/07/13 01:52:14;;;;;;;7.70;7.00;;;19.20;1.00;;;;;;4997362;28;20464;-61
2022/07/13 01:54:42;;;;;;;7.23;6.60;;;19.20;1.00;;;;;;4997825;28;20514;-60
2022/07/13 01:57:09;;;;;;;6.07;5.47;;;19.20;1.00;;;;;;4997878;28;20772;-61
2022/07/13 01:59:40;;;;;;;7.20;6.50;;;19.20;1.00;;;;;;4997856;28;20992;-61
2022/07/13 02:02:07;;;;;;;7.00;6.07;;;19.10;1.00;;;;;;4997565;28;20475;-60
2022/07/13 02:04:37;;;;;;;11.90;6.47;;;19.10;1.00;;;;;;4997715;28;20518;-61
2022/07/13 02:07:05;;;;;;;7.33;6.60;;;19.10;1.00;;;;;;4998004;28;20501;-61
2022/07/13 02:09:32;;;;;;;7.03;6.33;;;19.10;1.00;;;;;;4997796;28;20890;-61
2022/07/13 02:12:01;;;;;;;7.10;6.50;;;19.10;1.00;;;;;;4997635;28;20507;-61
2022/07/13 02:14:30;;;;;;;7.33;6.63;;;19.10;1.00;;;;;;4997867;28;20831;-58
2022/07/13 02:16:58;;;;;;;6.87;6.07;;;19.10;1.00;;;;;;4997739;28;20486;-61
2022/07/13 02:19:26;;;;;;;7.30;6.70;;;19.10;1.00;;;;;;4997519;28;20927;-61
2022/07/13 02:21:53;;;;;;;7.50;6.90;;;19.10;1.00;;;;;;4997492;28;20898;-61
2022/07/13 02:24:20;;;;;;;8.03;7.23;;;19.10;1.00;;;;;;4997553;28;20461;-61
2022/07/13 02:26:48;;;;;;;7.03;6.33;;;19.10;1.00;;;;;;5000449;28;20468;-61
2022/07/13 02:29:17;;;;;;;8.00;7.30;;;18.90;1.00;;;;;;5001548;28;20468;-61
2022/07/13 02:31:45;;;;;;;7.00;6.50;;;18.90;1.00;;;;;;5001078;28;20469;-61
2022/07/13 02:34:15;;;;;;;8.33;7.63;;;18.90;1.00;;;;;;5001602;28;20558;-61
2022/07/13 02:36:42;;;;;;;8.23;7.43;;;18.80;1.00;;;;;;5001054;28;20811;-61
2022/07/13 02:39:09;;;;;;;7.63;6.83;;;18.80;1.00;;;;;;5001365;28;20465;-61
2022/07/13 02:41:36;;;;;;;8.40;7.53;;;18.90;1.00;;;;;;5001268;28;20510;-61
2022/07/13 02:44:07;;;;;;;8.13;7.43;;;18.90;1.00;;;;;;5001098;28;20507;-61
2022/07/13 02:46:34;;;;;;;6.73;6.13;;;18.80;1.00;;;;;;5001335;28;20471;-60
2022/07/13 02:49:04;;;;;;;7.77;7.07;;;18.80;1.00;;;;;;5001329;28;20543;-61
2022/07/13 02:51:33;;;;;;;7.23;6.63;;;18.90;1.00;;;;;;5001005;28;20471;-60
2022/07/13 02:54:03;;;;;;;7.80;7.00;;;18.90;1.00;;;;;;5000730;28;20586;-61
2022/07/13 02:56:30;;;;;;;7.80;7.00;;;18.90;1.00;;;;;;5000988;28;20597;-61
2022/07/13 02:58:58;;;;;;;7.57;6.93;;;18.90;1.00;;;;;;5000950;28;20563;-60
2022/07/13 03:01:31;;;;;;;6.90;6.30;;;18.90;1.00;;;;;;5000176;28;20480;-61
2022/07/13 03:03:58;;;;;;;7.90;7.20;;;18.90;1.00;;;;;;5000313;28;20491;-59
2022/07/13 03:06:28;;;;;;;6.80;6.20;;;18.90;1.00;;;;;;5001048;28;20555;-61
2022/07/13 03:08:57;;;;;;;6.80;6.10;;;18.90;1.00;;;;;;5000874;28;20553;-61
2022/07/13 03:11:24;;;;;;;7.57;6.70;;;18.90;1.00;;;;;;5000568;28;20500;-60
2022/07/13 03:13:51;;;;;;;7.40;6.80;;;19.00;1.00;;;;;;5000066;28;20504;-61
2022/07/13 03:16:21;;;;;;;6.93;6.23;;;19.00;1.00;;;;;;5000164;28;20524;-61
2022/07/13 03:18:48;;;;;;;6.80;6.30;;;19.00;1.00;;;;;;5001072;28;20468;-61
2022/07/13 03:21:15;;;;;;;6.77;6.17;;;19.00;1.00;;;;;;5000981;28;20565;-61
2022/07/13 03:23:42;;;;;;;7.00;6.13;;;19.00;1.00;;;;;;5000500;28;20471;-57
2022/07/13 03:26:11;;;;;;;6.90;6.30;;;19.00;1.00;;;;;;5000310;28;20556;-61
2022/07/13 03:28:42;;;;;;;7.30;6.60;;;19.00;1.00;;;;;;5000528;28;20520;-61
2022/07/13 03:31:11;;;;;;;7.17;6.57;;;19.00;1.00;;;;;;5000784;28;20547;-61
2022/07/13 03:33:38;;;;;;;7.93;7.23;;;18.80;1.00;;;;;;5000218;28;20472;-61
2022/07/13 03:36:06;;;;;;;7.23;6.63;;;18.80;1.00;;;;;;4999470;28;20504;-61
2022/07/13 03:38:33;;;;;;;8.20;6.40;;;18.90;1.00;;;;;;5000363;28;20500;-61
2022/07/13 03:41:01;;;;;;;6.70;6.10;;;19.00;1.00;;;;;;5000203;28;20469;-61
2022/07/13 03:43:30;;;;;;;6.40;5.80;;;18.90;1.00;;;;;;5000244;28;20439;-58
2022/07/13 03:45:57;;;;;;;6.80;6.30;;;19.00;1.00;;;;;;4999866;28;20467;-61
2022/07/13 03:48:25;;;;;;;6.87;6.30;;;19.00;1.00;;;;;;4999357;28;20551;-61
2022/07/13 03:50:52;;;;;;;7.63;6.93;;;19.00;1.00;;;;;;5000241;28;20466;-61
2022/07/13 03:53:19;;;;;;;6.90;6.30;;;19.10;1.00;;;;;;5000177;28;20742;-61
2022/07/13 03:55:48;;;;;;;7.40;6.27;;;19.10;1.00;;;;;;4999944;28;20497;-61
2022/07/13 03:58:15;;;;;;;9.03;6.77;;;19.00;1.00;;;;;;5000044;28;20564;-61
2022/07/13 04:00:47;;;;;;;11.07;7.60;;;19.10;1.00;;;;;;4999426;28;20913;-61
2022/07/13 04:03:15;;;;;;;7.00;6.40;;;19.10;1.00;;;;;;5000230;28;20444;-61
2022/07/13 04:05:45;;;;;;;7.40;6.70;;;19.10;1.00;;;;;;4999241;28;20467;-61
2022/07/13 04:08:12;;;;;;;6.90;6.20;;;19.20;1.00;;;;;;4999332;28;20908;-61
2022/07/13 04:10:39;;;;;;;7.37;6.50;;;19.20;1.00;;;;;;4999604;28;20501;-61
2022/07/13 04:13:08;;;;;;;6.70;6.00;;;19.20;1.00;;;;;;4999837;28;20468;-61
2022/07/13 04:15:35;;;;;;;6.73;6.17;;;19.20;1.00;;;;;;4999412;28;20843;-61
2022/07/13 04:18:04;;;;;;;7.13;6.43;;;19.30;1.00;;;;;;4999599;28;20563;-61
2022/07/13 04:20:31;;;;;;;7.03;6.43;;;19.20;99.90;;;;;;4999531;28;20853;-61
2022/07/13 04:22:59;;;;;;;6.90;6.13;;;19.20;99.90;;;;;;4999386;28;20465;-60
2022/07/13 04:25:26;;;;;;;6.70;6.10;;;19.20;99.90;;;;;;4999206;28;20885;-61
2022/07/13 04:27:53;;;;;;;7.77;7.17;;;19.30;1.00;;;;;;4999090;28;20471;-61
2022/07/13 04:30:23;;;;;;;6.10;5.60;;;19.30;99.90;;;;;;4999658;28;20496;-61
2022/07/13 04:32:50;;;;;;;8.30;6.00;;;19.30;99.90;;;;;;4999342;28;20771;-61
2022/07/13 04:35:19;;;;;;;6.37;5.60;;;19.40;99.90;;;;;;4999320;28;20501;-60
2022/07/13 04:37:47;;;;;;;6.73;6.13;;;19.40;99.90;;;;;;4998606;28;20495;-58
2022/07/13 04:40:16;;;;;;;9.50;6.50;;;19.50;99.90;;;;;;4999191;28;20559;-61
2022/07/13 04:42:46;;;;;;;6.10;5.60;;;19.50;99.90;;;;;;4999125;28;20551;-61
2022/07/13 04:45:13;;;;;;;6.97;6.27;;;19.60;99.90;;;;;;4999150;28;20461;-61
2022/07/13 04:47:40;;;;;;;7.00;6.27;;;19.80;99.90;;;;;;4998420;28;20830;-61
2022/07/13 04:50:08;;;;;;;7.27;6.57;;;19.80;99.90;;;;;;4998677;28;20763;-61
2022/07/13 04:52:37;;;;;;;6.13;5.60;;;19.80;99.90;;;;;;4998892;28;20465;-61
2022/07/13 04:55:07;;;;;;;6.90;6.30;;;19.90;99.90;;;;;;4999003;28;20955;-61
2022/07/13 04:57:34;;;;;;;6.57;5.70;;;19.90;99.90;;;;;;4997834;28;20468;-61
2022/07/13 05:00:05;;;;;;;8.40;5.30;;;20.00;99.90;;;;;;4999016;28;20714;-61
2022/07/13 05:02:32;;;;;;;7.23;5.53;;;20.00;99.90;;;;;;4998816;28;20791;-61
2022/07/13 05:05:00;;;;;;;5.70;5.20;;;20.10;99.90;;;;;;4998852;28;20461;-61
2022/07/13 05:07:33;;;;;;;7.37;5.33;;;20.20;99.90;;;;;;4998788;28;20969;-61
2022/07/13 05:10:04;;;;;;;5.23;4.73;;;20.30;99.90;;;;;;4998093;28;20988;-61
2022/07/13 05:12:37;;;;;;;5.73;5.23;;;20.20;99.90;;;;;;4998780;28;20524;-61
2022/07/13 05:15:08;;;;;;;5.20;4.70;;;20.30;99.90;;;;;;4998478;28;20514;-61
2022/07/13 05:17:35;;;;;;;5.67;5.07;;;20.40;99.90;;;;;;4998321;28;20834;-61
2022/07/13 05:20:03;;;;;;;4.80;4.40;;;20.60;99.90;;;;;;4997461;28;20963;-61
2022/07/13 05:22:31;;;;;;;4.83;4.43;;;20.70;99.90;;;;;;4998553;28;20836;-61
2022/07/13 05:24:59;;;;;;;4.23;3.83;;;20.80;99.90;;;;;;4998658;28;20465;-62
2022/07/13 05:27:28;;;;;;;5.23;4.30;;;21.00;99.90;;;;;;4997821;28;20568;-61
2022/07/13 05:29:56;;;;;;;4.70;4.30;;;21.10;99.90;;;;;;4998040;28;20464;-60
2022/07/13 05:32:26;;;;;;;4.63;4.23;;;21.20;99.90;;;;;;4998685;28;20471;-62
2022/07/13 05:34:53;;;;;;;3.97;3.57;;;21.30;99.90;;;;;;4998747;28;20921;-62
2022/07/13 05:37:21;;;;;;;4.37;3.97;;;21.40;99.90;;;;;;4997828;28;20587;-62
2022/07/13 05:39:50;;;;;;;7.40;3.80;;;21.50;99.90;;;;;;4997502;28;20469;-61
2022/07/13 05:42:17;;;;;;;5.80;3.93;;;21.50;99.90;;;;;;4998192;28;20475;-62
2022/07/13 05:44:46;;;;;;;4.00;3.70;;;21.60;99.90;;;;;;4997854;28;20908;-62
2022/07/13 05:47:18;;;;;;;5.20;4.27;;;21.70;99.90;;;;;;4997715;28;20465;-62
2022/07/13 05:49:49;;;;;;;3.43;3.10;;;21.80;99.90;;;;;;4997896;28;20471;-62
2022/07/13 05:52:16;;;;;;;3.80;3.50;;;21.90;99.90;;;;;;4997948;28;20822;-62
2022/07/13 05:54:44;;;;;;;3.57;3.27;;;21.90;99.90;;;;;;4997730;28;20504;-62
2022/07/13 05:57:11;;;;;;;4.00;3.70;;;22.10;99.90;;;;;;4997225;28;20559;-62
2022/07/13 05:59:39;;;;;;;4.33;3.53;;;22.00;99.90;;;;;;4996583;28;20471;-61
2022/07/13 06:02:10;;;;;;;3.63;3.37;;;22.20;99.90;;;;;;4997422;28;20870;-62
2022/07/13 06:04:38;;;;;;;3.97;3.57;;;22.30;99.90;;;;;;4997870;28;20560;-62
2022/07/13 06:07:06;;;;;;;4.60;3.30;;;22.50;99.90;;;;;;4998049;28;20766;-62
2022/07/13 06:09:33;;;;;;;4.30;3.73;;;22.70;99.90;;;;;;4997550;28;20479;-61
2022/07/13 06:12:00;;;;;;;4.73;3.80;;;23.10;99.90;;;;;;4997442;28;20464;-62
2022/07/13 06:14:28;;;;;;;4.00;3.40;;;23.30;99.90;;;;;;4997872;28;20469;-62
2022/07/13 06:16:58;;;;;;;4.13;3.83;;;23.50;99.90;;;;;;4997750;28;20503;-62
2022/07/13 06:19:27;;;;;;;4.77;4.37;;;23.60;99.90;;;;;;4997786;28;20774;-61
2022/07/13 06:21:55;;;;;;;4.90;3.73;;;23.60;99.90;;;;;;5007979;28;20551;-59
2022/07/13 06:24:22;;;;;;;3.90;3.60;;;23.60;99.90;;;;;;5016158;28;20470;-62
2022/07/13 06:26:51;;;;;;;3.73;3.30;;;23.60;99.90;;;;;;5015705;28;20456;-62
2022/07/13 06:29:19;;;;;;;4.00;3.60;;;23.70;99.90;;;;;;5017277;28;20986;-62
2022/07/13 06:31:52;;;;;;;3.80;3.50;;;23.70;99.90;;;;;;5016083;28;20496;-62
2022/07/13 06:34:19;;;;;;;3.90;3.60;;;23.70;99.90;;;;;;5016697;28;20551;-62
2022/07/13 06:36:48;;;;;;;3.90;3.50;;;23.80;99.90;;;;;;5016715;28;20504;-62
2022/07/13 06:39:16;;;;;;;3.30;3.00;;;24.00;99.90;;;;;;5015809;28;20759;-62
2022/07/13 06:41:43;;;;;;;3.83;3.53;;;24.20;99.90;;;;;;5016317;28;20508;-62
2022/07/13 06:44:11;;;;;;;4.53;3.47;;;24.40;99.90;;;;;;5016519;28;20475;-61
2022/07/13 06:46:40;;;;;;;5.73;3.50;;;24.40;99.90;;;;;;5016803;28;20969;-62
2022/07/13 06:49:07;;;;;;;3.63;3.33;;;24.60;99.90;;;;;;5016596;28;20471;-62
2022/07/13 06:51:36;;;;;;;4.10;3.50;;;25.00;99.90;;;;;;5016385;28;20470;-62
2022/07/13 06:54:05;;;;;;;5.90;3.30;;;24.90;99.90;;;;;;5016541;28;20472;-62
2022/07/13 06:56:35;;;;;;;4.00;3.60;;;24.90;99.90;;;;;;5016663;28;20975;-62
2022/07/13 06:59:04;;;;;;;4.40;3.40;;;24.80;99.90;;;;;;5016805;28;20491;-62
2022/07/13 07:01:34;;;;;;;3.43;3.20;;;24.80;99.90;;;;;;5016795;28;20464;-62
2022/07/13 07:04:03;;;;;;;3.63;3.17;;;24.90;99.90;;;;;;5016725;28;20506;-62
2022/07/13 07:06:33;;;;;;;5.53;3.40;;;24.80;99.90;;;;;;5016856;28;20435;-62
2022/07/13 07:09:00;;;;;;;5.23;3.10;;;24.90;99.90;;;;;;5016251;28;20464;-62
2022/07/13 07:11:29;;;;;;;3.63;3.33;;;24.90;99.90;;;;;;5017328;28;20442;-62
2022/07/13 07:13:58;;;;;;;3.93;3.43;;;25.30;99.90;;;;;;5020083;28;20519;-62
2022/07/13 07:16:30;;;;;;;5.13;3.00;;;25.40;99.90;;;;;;5020508;28;20496;-62
2022/07/13 07:18:57;;;;;;;3.57;3.27;;;25.70;99.90;;;;;;5018754;28;20545;-60
2022/07/13 07:21:25;;;;;;;5.57;3.40;;;26.10;99.90;;;;;;5020477;28;20952;-62
2022/07/13 07:23:53;;;;;;;3.80;3.50;;;26.20;99.90;;;;;;5018205;28;20566;-62
2022/07/13 07:26:23;;;;;;;4.03;3.63;;;26.30;99.90;;;;;;5019767;28;20468;-62
2022/07/13 07:28:54;;;;;;;3.53;3.27;;;26.30;99.90;;;;;;5020256;28;20534;-62
2022/07/13 07:31:21;;;;;;;3.97;3.57;;;26.30;99.90;;;;;;5019079;28;20566;-60
2022/07/13 07:33:48;;;;;;;3.73;3.37;;;26.20;99.90;;;;;;5019209;28;20468;-60
2022/07/13 07:36:17;;;;;;;3.87;3.60;;;26.10;99.90;;;;;;5019330;28;20542;-62
2022/07/13 07:38:45;;;;;;;3.90;3.60;;;26.40;99.90;;;;;;5019710;28;20463;-62
2022/07/13 07:41:23;;;;;;;3.60;3.30;;;26.70;99.90;;;;;;5019820;28;20467;-62
2022/07/13 07:43:51;;;;;;;3.70;3.30;;;27.10;99.90;;;;;;5019810;28;20542;-62
2022/07/13 07:46:18;;;;;;;3.30;3.07;;;27.30;99.90;;;;;;5018943;28;20466;-62
2022/07/13 07:48:46;;;;;;;4.73;3.43;;;27.40;99.90;;;;;;5018932;28;20468;-62
2022/07/13 07:51:13;;;;;;;3.83;3.23;;;27.40;99.90;;;;;;5019223;28;20460;-62
2022/07/13 07:53:43;;;;;;;5.03;3.67;;;27.40;99.90;;;;;;5015471;28;20974;-63
2022/07/13 07:56:15;;;;;;;4.63;3.30;;;27.40;99.90;;;;;;5018526;28;20498;-61
2022/07/13 07:58:42;;;;;;;3.60;3.30;;;27.60;99.90;;;;;;5018292;28;20888;-62
2022/07/13 08:01:12;;;;;;;3.50;3.30;;;28.30;99.90;;;;;;5019194;28;20950;-63
2022/07/13 08:03:40;;;;;;;7.03;3.70;;;28.70;99.90;;;;;;5019419;28;20475;-63
2022/07/13 08:06:12;;;;;;;5.50;3.30;;;29.20;99.90;;;;;;5019423;28;20487;-63
2022/07/13 08:08:42;;;;;;;3.50;3.30;;;29.50;99.90;;;;;;5019659;28;20900;-63
2022/07/13 08:11:21;;;;;;;4.40;4.00;;;29.00;99.90;;;;;;5019659;28;20558;-63
2022/07/13 08:13:49;;;;;;;4.37;3.27;;;28.80;99.90;;;;;;5018807;28;20464;-63
2022/07/13 08:16:20;;;;;;;3.43;3.13;;;28.80;99.90;;;;;;5019001;28;20491;-62
2022/07/13 08:18:51;;;;;;;4.30;3.83;;;29.00;99.90;;;;;;5018946;28;20555;-63
2022/07/13 08:21:19;;;;;;;3.47;3.27;;;29.10;99.90;;;;;;5019351;28;20467;-63
2022/07/13 08:23:58;;;;;;;4.40;3.10;;;29.10;99.90;;;;;;5017698;28;20468;-63
2022/07/13 08:26:27;;;;;;;5.00;3.23;;;29.30;99.90;;;;;;5019235;28;20507;-62
2022/07/13 08:28:55;;;;;;;4.20;3.90;;;29.40;99.90;;;;;;5017805;28;20514;-63
2022/07/13 08:31:27;;;;;;;5.80;3.83;;;29.90;99.90;;;;;;5017606;28;20482;-63
2022/07/13 08:39:27;;;;;;;4.07;3.73;;;28.80;99.90;;;;;;5018013;28;20439;-62
2022/07/13 08:41:59;;;;;;;5.67;4.23;;;28.40;99.90;;;;;;5018663;28;20475;-62
2022/07/13 08:44:29;;;;;;;4.20;3.80;;;28.30;99.90;;;;;;5018317;28;20534;-62
2022/07/13 08:47:00;;;;;;;4.40;3.80;;;28.20;99.90;;;;;;5018793;28;20519;-62
2022/07/13 08:49:29;;;;;;;3.97;3.13;;;28.70;99.90;;;;;;5018291;28;20567;-62
2022/07/13 08:51:58;;;;;;;4.13;3.70;;;29.30;99.90;;;;;;5018694;28;20467;-63
2022/07/13 08:54:26;;;;;;;6.20;3.50;;;29.50;99.90;;;;;;5018797;28;20464;-63
2022/07/13 08:56:53;;;;;;;4.50;4.10;;;29.40;99.90;;;;;;5018434;28;20956;-62
2022/07/13 08:59:24;;;;;;;4.43;3.40;;;29.00;99.90;;;;;;5018589;28;20460;-62
2022/07/13 09:01:51;;;;;;;4.70;4.00;;;29.00;99.90;;;;;;5017633;28;20471;-62
2022/07/13 09:04:25;;;;;;;6.73;3.67;;;28.90;99.90;;;;;;5024154;28;20459;-62
2022/07/13 09:06:52;;;;;;;3.33;3.03;;;28.90;99.90;;;;;;5037740;28;20465;-62
2022/07/13 09:09:35;;;;;;;4.57;3.50;;;29.10;99.90;;;;;;5034099;28;20498;-63
2022/07/13 09:12:24;;;;;;;4.70;3.50;;;29.40;99.90;;;;;;5037216;28;20463;-63
2022/07/13 09:15:00;;;;;;;7.87;3.47;;;29.10;99.90;;;;;;5037993;28;20524;-63
2022/07/13 09:17:35;;;;;;;3.50;3.10;;;29.30;99.90;;;;;;5037356;28;20502;-63
2022/07/13 09:20:18;;;;;;;5.13;3.83;;;29.60;99.90;;;;;;5037547;28;20888;-63
2022/07/13 09:22:51;;;;;;;4.27;3.87;;;29.60;99.90;;;;;;5036880;28;20513;-63
2022/07/13 09:25:33;;;;;;;7.67;4.00;;;29.60;99.90;;;;;;5036472;28;20470;-63
2022/07/13 09:28:05;;;;;;;4.03;3.10;;;30.10;99.90;;;;;;5037150;28;20470;-63
2022/07/13 09:30:36;;;;;;;4.87;4.23;;;29.70;99.90;;;;;;5037621;28;20817;-63
2022/07/13 09:33:05;;;;;;;5.23;4.20;;;29.90;99.90;;;;;;5037001;28;20908;-62
2022/07/13 09:35:50;;;;;;;4.10;3.80;;;30.10;99.90;;;;;;5036846;28;20459;-63
2022/07/13 09:38:33;;;;;;;4.83;3.70;;;30.40;99.90;;;;;;5028912;28;20462;-63
2022/07/13 09:41:20;;;;;;;13.70;4.90;;;30.50;99.90;;;;;;5016739;28;20508;-60
2022/07/13 09:46:58;;;;;;;3.67;3.37;;;29.90;99.90;;;;;;5017470;28;20453;-62
2022/07/13 09:49:41;;;;;;;7.90;3.87;;;30.40;99.90;;;;;;5016619;28;20471;-63
2022/07/13 09:52:11;;;;;;;4.50;4.10;;;30.40;99.90;;;;;;5016921;28;20464;-63
2022/07/13 09:54:48;;;;;;;6.50;4.33;;;30.10;99.90;;;;;;5017453;28;20458;-63
2022/07/13 09:57:18;;;;;;;5.23;4.00;;;30.40;99.90;;;;;;5016775;28;20502;-63
2022/07/13 09:59:46;;;;;;;7.53;3.53;;;30.20;99.90;;;;;;5016515;28;20460;-63
2022/07/13 10:02:17;;;;;;;4.53;3.47;;;30.30;99.90;;;;;;5017281;28;20468;-63
2022/07/13 10:04:51;;;;;;;5.30;3.70;;;30.50;99.90;;;;;;5017718;28;20446;-63
2022/07/13 10:07:23;;;;;;;6.33;3.80;;;30.40;99.90;;;;;;5017149;28;20885;-62
2022/07/13 10:09:50;;;;;;;3.60;3.30;;;30.40;99.90;;;;;;5017231;28;20514;-63
2022/07/13 10:12:22;;;;;;;6.13;4.13;;;30.40;99.90;;;;;;5017106;28;20503;-63
2022/07/13 10:14:53;;;;;;;3.53;3.23;;;30.50;99.90;;;;;;5017437;28;20467;-63
2022/07/13 10:17:22;;;;;;;7.80;4.00;;;31.00;99.90;;;;;;5017314;28;20881;-61
2022/07/13 10:20:02;;;;;;;3.97;3.67;;;31.20;99.90;;;;;;5014606;28;20483;-62
2022/07/13 10:22:35;;;;;;;11.43;4.37;;;31.40;99.90;;;;;;5014328;28;20798;-61
2022/07/13 10:25:02;;;;;;;4.40;3.53;;;31.10;99.90;;;;;;5015940;28;20930;-62
2022/07/13 10:27:37;;;;;;;4.00;3.60;;;30.70;99.90;;;;;;5013806;28;20541;-63
2022/07/13 10:30:09;;;;;;;6.23;4.27;;;30.10;99.90;;;;;;5034044;28;20474;-63
2022/07/13 10:32:40;;;;;;;4.43;4.10;;;30.50;99.90;;;;;;5018764;28;20547;-63
2022/07/13 10:35:12;;;;;;;8.43;4.00;;;30.90;99.90;;;;;;5014988;28;20460;-63
2022/07/13 10:38:27;;;;;;;4.17;3.40;;;30.80;99.90;;;;;;5010511;28;20943;-63
2022/07/13 10:41:23;;;;;;;5.80;3.80;;;30.90;99.90;;;;;;4966875;28;20483;-63
2022/07/13 10:43:55;;;;;;;4.50;4.10;;;30.90;99.90;;;;;;4999940;28;20468;-63
2022/07/13 10:46:49;;;;;;;6.50;4.30;;;30.70;99.90;;;;;;5017621;28;20507;-63
2022/07/13 10:49:47;;;;;;;4.93;4.17;;;30.80;99.90;;;;;;5020834;28;20499;-63
2022/07/13 10:52:51;;;;;;;4.50;4.10;;;31.00;99.90;;;;;;5013324;28;20503;-63
2022/07/13 10:55:39;;;;;;;5.73;3.93;;;30.90;99.90;;;;;;5020791;28;20529;-63
2022/07/13 10:58:43;;;;;;;4.50;4.10;;;30.50;99.90;;;;;;5017171;28;20477;-63
2022/07/13 11:01:48;;;;;;;7.33;3.90;;;30.10;99.90;;;;;;5017865;28;20505;-63
2022/07/13 11:04:17;;;;;;;7.03;4.07;;;29.70;99.90;;;;;;4979503;28;20547;-63
2022/07/13 11:07:10;;;;;;;4.83;4.33;;;29.40;99.90;;;;;;5015549;28;20883;-63
2022/07/13 11:09:39;;;;;;;7.33;3.50;;;29.40;99.90;;;;;;5009346;28;20528;-63
2022/07/13 11:12:25;;;;;;;10.50;4.33;;;29.50;99.90;;;;;;4999497;28;20464;-62
2022/07/13 11:14:54;;;;;;;3.27;2.87;;;29.60;99.90;;;;;;5000922;28;20559;-63
2022/07/13 11:17:26;;;;;;;6.60;3.30;;;29.60;99.90;;;;;;5000666;28;20503;-63
2022/07/13 11:20:03;;;;;;;4.43;4.03;;;29.70;99.90;;;;;;5000130;28;20504;-63
2022/07/13 11:25:28;;;;;;;7.27;3.97;;;29.70;99.90;;;;;;4999263;28;20903;-63
2022/07/13 11:28:06;;;;;;;4.63;3.13;;;29.40;99.90;;;;;;5000118;28;20479;-63
2022/07/13 11:30:36;;;;;;;5.10;3.27;;;29.40;99.90;;;;;;4999444;28;20519;-63
2022/07/13 11:33:11;;;;;;;6.87;4.13;;;29.70;99.90;;;;;;4999655;28;20461;-63
2022/07/13 11:35:39;;;;;;;4.57;4.17;;;29.70;99.90;;;;;;4999706;28;20475;-62
2022/07/13 11:38:08;;;;;;;5.27;3.77;;;30.00;99.90;;;;;;4999529;28;20944;-63
2022/07/13 11:40:37;;;;;;;7.63;3.40;;;31.20;99.90;;;;;;4999575;28;20465;-64
2022/07/13 11:43:07;;;;;;;4.33;3.93;;;31.90;99.90;;;;;;5000257;28;20469;-63
2022/07/13 11:45:37;;;;;;;3.77;3.47;;;32.40;99.90;;;;;;5000013;28;20820;-64
2022/07/13 11:48:16;;;;;;;6.27;3.93;;;32.60;99.90;;;;;;5002908;28;20472;-63
2022/07/13 11:50:47;;;;;;;9.23;4.17;;;32.60;99.90;;;;;;5015432;28;20472;-63
2022/07/13 11:53:26;;;;;;;13.13;4.30;;;32.90;99.90;;;;;;5019635;28;20438;-62
2022/07/13 11:55:59;;;;;;;10.37;3.50;;;32.60;99.90;;;;;;5019174;28;20468;-64
2022/07/13 11:58:31;;;;;;;5.07;4.00;;;32.00;99.90;;;;;;5018058;28;20500;-62
2022/07/13 12:00:59;;;;;;;6.07;3.57;;;31.60;99.90;;;;;;5019605;28;20479;-61
2022/07/13 12:03:33;;;;;;;4.27;3.87;;;31.20;99.90;;;;;;5018639;28;20439;-63
2022/07/13 12:06:06;;;;;;;6.70;3.20;;;30.90;99.90;;;;;;5018898;28;20468;-63
2022/07/13 12:08:38;;;;;;;3.50;3.20;;;31.10;99.90;;;;;;5000462;28;20468;-63
2022/07/13 12:11:15;;;;;;;4.30;3.60;;;31.20;99.90;;;;;;5017890;28;20478;-63
2022/07/13 12:13:46;;;;;;;4.93;3.00;;;31.40;99.90;;;;;;4999816;28;20773;-63
2022/07/13 12:16:15;;;;;;;3.10;2.90;;;31.30;99.90;;;;;;4999704;28;20826;-61
2022/07/13 12:19:09;;;;;;;4.70;3.23;;;31.00;99.90;;;;;;4999514;28;20586;-63
2022/07/13 12:21:39;;;;;;;6.67;2.80;;;31.00;99.90;;;;;;5018297;28;20551;-63
2022/07/13 12:24:08;;;;;;;4.47;2.90;;;31.20;99.90;;;;;;5019204;28;20482;-63
2022/07/13 12:26:36;;;;;;;3.60;3.30;;;31.00;99.90;;;;;;5018789;28;20468;-64
2022/07/13 12:29:04;;;;;;;3.50;3.10;;;31.10;99.90;;;;;;5018694;28;20464;-63
2022/07/13 12:31:31;;;;;;;3.70;3.40;;;31.10;99.90;;;;;;5018390;28;20470;-64
2022/07/13 12:34:03;;;;;;;7.70;4.40;;;31.30;99.90;;;;;;5018537;28;20531;-64
2022/07/13 12:36:30;;;;;;;6.70;3.33;;;31.80;99.90;;;;;;5018676;28;20488;-63
2022/07/13 12:39:07;;;;;;;3.63;2.70;;;31.80;99.90;;;;;;5018164;28;20824;-64
2022/07/13 12:41:40;;;;;;;6.17;3.50;;;31.60;99.90;;;;;;5016470;28;20438;-63
2022/07/13 12:44:09;;;;;;;6.97;3.00;;;31.30;99.90;;;;;;5018917;28;20877;-63
2022/07/13 12:46:54;;;;;;;2.97;2.67;;;31.00;99.90;;;;;;5018633;28;20912;-63
2022/07/13 12:49:35;;;;;;;11.23;2.90;;;31.10;99.90;;;;;;5017949;28;20446;-63
2022/07/13 12:52:07;;;;;;;3.17;2.97;;;31.10;99.90;;;;;;5018401;28;20907;-63
2022/07/13 12:54:51;;;;;;;4.63;3.17;;;30.80;99.90;;;;;;5018881;28;20901;-63
2022/07/13 12:57:19;;;;;;;3.60;2.93;;;30.90;99.90;;;;;;5018039;28;20547;-63
2022/07/13 13:00:00;;;;;;;4.10;3.70;;;30.60;99.90;;;;;;5018603;28;20463;-63
2022/07/13 13:02:29;;;;;;;3.43;3.03;;;30.10;99.90;;;;;;5018388;28;20904;-63
2022/07/13 13:04:59;;;;;;;4.33;3.30;;;29.90;99.90;;;;;;5018421;28;20482;-64
2022/07/13 13:07:35;;;;;;;6.53;3.77;;;29.90;99.90;;;;;;5017921;28;20883;-63
2022/07/13 13:10:03;;;;;;;4.70;2.70;;;30.00;99.90;;;;;;5017360;28;20464;-63
2022/07/13 13:12:31;;;;;;;3.30;2.73;;;30.40;99.90;;;;;;5018599;28;20459;-63
2022/07/13 13:14:59;;;;;;;4.07;3.53;;;30.20;99.90;;;;;;5018456;28;20463;-63
2022/07/13 13:17:30;;;;;;;3.57;3.27;;;30.20;99.90;;;;;;5017749;28;20895;-63